Impacts METAR Board INFO
IDs:

KSLC - Salt Lake City Intl, UT, US

Updated at: 0339 UTC 20 Nov 2017
Potential Impact None Slight Moderate High
Time19/15Z 19/16Z 19/17Z 19/18Z 19/19Z 19/20Z 19/21Z 19/22Z 19/23Z 20/00Z 20/01Z 20/02Z 20/03Z
VIS10 10 10 10 10 10 10 10 10 10 10 10 10
CIG220 220 220 220 -- -- -- -- -- 250 250 -- 200
CoverBKNBKNBKNBKNSCTFEWCLRFEWFEWBKNBKNSCTBKN
FltCatVFRVFRVFRVFRVFRVFRVFRVFRVFRVFRVFRVFRVFR
WX--------------------------
WDir120170002000340350330320330150340
WSpd3 4 0 0 4 3 3 5 7 8 3 3 5
WGst-- -- -- -- -- -- -- -- -- -- -- -- --
Raw hourly METARs
KSLC 191454Z 12003KT 10SM SCT180 BKN220 M01/M05 A3028 RMK AO2 SLP265 T10061050 55002 VISNO NW RNWY $
KSLC 191554Z 17004KT 10SM FEW180 BKN220 01/M04 A3029 RMK AO2 SLP267 T00111039 VISNO NW RNWY $
KSLC 191654Z 00000KT 10SM SCT180 BKN220 02/M04 A3029 RMK AO2 SLP267 T00171044 VISNO NW RNWY $
KSLC 191754Z 00000KT 10SM FEW180 BKN220 04/M04 A3029 RMK AO2 SLP254 T00391044 10039 21011 50003 $
KSLC 191854Z 20004KT 10SM SCT220 06/M05 A3023 RMK AO2 SLP242 T00561050 $
KSLC 191954Z VRB03KT 10SM FEW220 08/M06 A3019 RMK AO2 SLP226 T00781056 VISNO NW RNWY $
KSLC 192054Z 34003KT 10SM CLR 09/M04 A3016 RMK AO2 SLP211 T00941044 56038 $
KSLC 192154Z 35005KT 10SM FEW250 09/M04 A3013 RMK AO2 SLP200 T00941044 $
KSLC 192254Z 33007KT 10SM FEW250 08/M03 A3013 RMK AO2 SLP201 T00831028 $
KSLC 192354Z 32008KT 10SM FEW200 BKN250 06/M01 A3015 RMK AO2 SLP212 T00611011 10094 20039 55004 $
KSLC 200054Z 33003KT 10SM FEW200 BKN250 04/M01 A3012 RMK AO2 SLP197 T00441011 $
KSLC 200154Z 15003KT 10SM FEW200 SCT250 03/M01 A3010 RMK AO2 SLP200 T00331011 $
KSLC 200254Z 34005KT 10SM BKN200 02/M01 A3009 RMK AO2 SLP201 T00171011 56016 $